createdAt,value
2022-09-03T00:01:38.398Z,1.20
2022-09-03T00:04:12.689Z,1.17
2022-09-03T00:06:49.014Z,1.30
2022-09-03T00:09:25.271Z,0.88
2022-09-03T00:12:24.881Z,0.80
2022-09-03T00:14:58.737Z,1.23
2022-09-03T00:17:51.320Z,0.88
2022-09-03T00:20:57.772Z,1.15
2022-09-03T00:23:28.297Z,1.20
2022-09-03T00:25:57.957Z,1.23
2022-09-03T00:28:55.263Z,0.90
2022-09-03T00:31:37.763Z,0.70
2022-09-03T00:34:27.913Z,0.70
2022-09-03T00:36:56.783Z,0.60
2022-09-03T00:39:26.618Z,0.75
2022-09-03T00:42:13.549Z,1.00
2022-09-03T00:44:50.835Z,0.80
2022-09-03T00:47:28.169Z,0.80
2022-09-03T00:50:13.199Z,0.93
2022-09-03T00:52:47.750Z,1.20
2022-09-03T00:55:27.766Z,1.00
2022-09-03T00:58:22.971Z,1.15
2022-09-03T01:00:51.314Z,1.00
2022-09-03T01:03:33.807Z,0.90
2022-09-03T01:06:28.136Z,0.70
2022-09-03T01:09:10.543Z,0.60
2022-09-03T01:11:45.735Z,0.60
2022-09-03T01:14:30.322Z,1.20
2022-09-03T01:17:30.675Z,1.40
2022-09-03T01:20:11.544Z,1.40
2022-09-03T01:23:04.459Z,2.05
2022-09-03T01:25:48.828Z,1.70
2022-09-03T01:28:24.235Z,2.60
2022-09-03T01:31:18.378Z,3.33
2022-09-03T01:34:04.696Z,3.55
2022-09-03T01:36:42.073Z,2.42
2022-09-03T01:39:14.472Z,1.88
2022-09-03T01:42:09.575Z,1.67
2022-09-03T01:45:22.849Z,1.27
2022-09-03T01:48:21.477Z,1.10
2022-09-03T01:51:29.898Z,1.15
2022-09-03T01:54:21.199Z,1.08
2022-09-03T01:57:12.867Z,1.00
2022-09-03T02:00:09.471Z,1.00
2022-09-03T02:02:44.266Z,2.28
2022-09-03T02:05:26.042Z,3.10
2022-09-03T02:07:58.323Z,3.47
2022-09-03T02:10:46.193Z,4.10
2022-09-03T02:13:26.124Z,3.33
2022-09-03T02:15:55.651Z,4.53
2022-09-03T02:18:26.289Z,7.00
2022-09-03T02:20:55.291Z,5.35
2022-09-03T02:23:24.750Z,4.20
2022-09-03T02:25:59.223Z,3.35
2022-09-03T02:28:31.197Z,2.95
2022-09-03T02:30:59.791Z,2.65
2022-09-03T02:33:28.431Z,2.88
2022-09-03T02:35:57.225Z,2.72
2022-09-03T02:38:26.457Z,2.58
2022-09-03T02:40:54.947Z,2.70
2022-09-03T02:43:31.415Z,2.53
2022-09-03T02:46:04.064Z,2.38
2022-09-03T02:48:33.272Z,2.67
2022-09-03T02:51:01.521Z,2.72
2022-09-03T02:53:43.218Z,2.90
2022-09-03T02:56:11.556Z,2.88
2022-09-03T02:58:39.882Z,2.80
2022-09-03T03:01:08.255Z,2.97
2022-09-03T03:03:37.176Z,3.20
2022-09-03T03:06:05.707Z,2.75
2022-09-03T03:08:35.354Z,2.42
2022-09-03T03:11:04.526Z,2.40
2022-09-03T03:13:33.051Z,2.63
2022-09-03T03:16:03.022Z,2.47
2022-09-03T03:18:31.480Z,2.30
2022-09-03T03:21:05.581Z,2.10
2022-09-03T03:23:35.391Z,1.88
2022-09-03T03:26:08.710Z,2.38
2022-09-03T03:28:36.992Z,2.30
2022-09-03T03:31:12.730Z,2.65
2022-09-03T03:33:41.179Z,2.30
2022-09-03T03:36:15.073Z,2.40
2022-09-03T03:38:44.099Z,2.30
2022-09-03T03:41:14.972Z,2.40
2022-09-03T03:43:43.524Z,2.22
2022-09-03T03:46:12.173Z,2.30
2022-09-03T03:48:40.619Z,2.00
2022-09-03T03:51:09.798Z,2.10
2022-09-03T03:53:38.650Z,2.35
2022-09-03T03:56:10.025Z,2.28
2022-09-03T03:58:39.269Z,2.08
2022-09-03T04:01:12.504Z,2.20
2022-09-03T04:03:41.913Z,2.55
2022-09-03T04:06:11.208Z,2.30
2022-09-03T04:08:40.690Z,1.95
2022-09-03T04:11:11.011Z,2.35
2022-09-03T04:13:41.023Z,2.08
2022-09-03T04:16:14.526Z,2.83
2022-09-03T04:18:42.942Z,3.33
2022-09-03T04:21:13.643Z,2.58
2022-09-03T04:23:45.273Z,2.58
2022-09-03T04:26:15.724Z,2.03
2022-09-03T04:28:45.497Z,2.35
2022-09-03T04:31:14.767Z,2.45
2022-09-03T04:33:43.320Z,2.35
2022-09-03T04:36:17.177Z,2.13
2022-09-03T04:38:47.048Z,2.45
2022-09-03T04:41:17.365Z,2.80
2022-09-03T04:43:46.087Z,2.47
2022-09-03T04:46:21.020Z,2.38
2022-09-03T04:48:53.367Z,2.25
2022-09-03T04:51:30.398Z,2.53
2022-09-03T04:54:01.604Z,2.60
2022-09-03T04:56:34.798Z,2.47
2022-09-03T04:59:04.991Z,2.28
2022-09-03T05:01:35.048Z,2.40
2022-09-03T05:04:05.034Z,2.45
2022-09-03T05:06:33.860Z,2.50
2022-09-03T05:09:02.712Z,2.25
2022-09-03T05:11:31.156Z,2.80
2022-09-03T05:14:00.133Z,2.60
2022-09-03T05:16:30.359Z,2.53
2022-09-03T05:19:00.095Z,2.55
2022-09-03T05:21:29.836Z,2.25
2022-09-03T05:23:58.277Z,2.63
2022-09-03T05:26:29.398Z,2.40
2022-09-03T05:29:00.072Z,2.28
2022-09-03T05:31:31.905Z,2.17
2022-09-03T05:34:02.101Z,2.25
2022-09-03T05:36:37.658Z,2.47
2022-09-03T05:39:06.256Z,2.50
2022-09-03T05:41:34.651Z,2.10
2022-09-03T05:44:04.909Z,2.10
2022-09-03T05:46:34.196Z,2.42
2022-09-03T05:49:03.922Z,2.55
2022-09-03T05:51:32.763Z,2.07
2022-09-03T05:54:03.123Z,2.27
2022-09-03T05:56:32.226Z,2.83
2022-09-03T05:59:02.700Z,2.70
2022-09-03T06:01:39.070Z,2.60
2022-09-03T06:04:09.621Z,2.87
2022-09-03T06:06:39.313Z,2.75
2022-09-03T06:09:17.484Z,2.67
2022-09-03T06:11:46.237Z,2.83
2022-09-03T06:14:14.902Z,3.17
2022-09-03T06:16:45.867Z,3.47
2022-09-03T06:19:15.046Z,6.40
2022-09-03T06:21:44.459Z,3.80
2022-09-03T06:24:14.868Z,2.60
2022-09-03T06:26:44.050Z,2.17
2022-09-03T06:29:13.180Z,2.30
2022-09-03T06:31:41.932Z,2.70
2022-09-03T06:34:10.482Z,2.67
2022-09-03T06:36:41.620Z,2.72
2022-09-03T06:39:10.660Z,2.60
2022-09-03T06:41:40.291Z,2.87
2022-09-03T06:44:12.093Z,2.37
2022-09-03T06:46:42.915Z,2.10
2022-09-03T06:49:11.803Z,2.25
2022-09-03T06:51:41.252Z,2.00
2022-09-03T06:54:12.190Z,2.07
2022-09-03T06:56:41.346Z,3.13
2022-09-03T06:59:14.512Z,3.00
2022-09-03T07:01:45.514Z,2.58
2022-09-03T07:04:19.295Z,2.33
2022-09-03T07:06:48.725Z,2.05
2022-09-03T07:09:19.843Z,2.33
2022-09-03T07:11:48.928Z,2.70
2022-09-03T07:14:19.072Z,2.60
2022-09-03T07:16:48.851Z,2.90
2022-09-03T07:19:17.505Z,2.88
2022-09-03T07:21:50.107Z,2.65
2022-09-03T07:24:22.660Z,2.65
2022-09-03T07:26:51.086Z,2.90
2022-09-03T07:29:24.032Z,3.00
2022-09-03T07:31:53.222Z,2.85
2022-09-03T07:34:25.656Z,2.70
2022-09-03T07:36:55.220Z,3.13
2022-09-03T07:39:23.796Z,3.20
2022-09-03T07:41:53.006Z,2.60
2022-09-03T07:44:22.395Z,2.90
2022-09-03T07:46:53.534Z,2.42
2022-09-03T07:49:22.352Z,2.40
2022-09-03T07:51:54.705Z,2.45
2022-09-03T07:54:24.326Z,2.33
2022-09-03T07:56:52.764Z,2.83
2022-09-03T07:59:23.219Z,2.60
2022-09-03T08:01:53.374Z,2.77
2022-09-03T08:04:22.352Z,2.47
2022-09-03T08:06:55.895Z,2.15
2022-09-03T08:09:24.800Z,2.28
2022-09-03T08:11:53.332Z,2.37
2022-09-03T08:14:22.397Z,2.22
2022-09-03T08:16:50.848Z,2.33
2022-09-03T08:19:20.084Z,2.15
2022-09-03T08:21:48.583Z,2.08
2022-09-03T08:24:19.134Z,2.45
2022-09-03T08:26:51.735Z,2.45
2022-09-03T08:29:21.196Z,2.20
2022-09-03T08:31:49.892Z,2.75
2022-09-03T08:34:18.624Z,2.25
2022-09-03T08:36:47.567Z,2.15
2022-09-03T08:39:16.961Z,2.50
2022-09-03T08:41:51.132Z,2.50
2022-09-03T08:44:26.442Z,2.60
2022-09-03T08:47:03.917Z,2.38
2022-09-03T08:50:12.125Z,2.33
2022-09-03T08:52:49.795Z,2.35
2022-09-03T08:55:28.559Z,2.50
2022-09-03T08:58:07.129Z,2.50
2022-09-03T09:01:11.694Z,2.80
2022-09-03T09:04:17.651Z,2.65
2022-09-03T09:07:11.200Z,4.00
2022-09-03T09:09:43.323Z,3.08
2022-09-03T09:12:19.872Z,3.50
2022-09-03T09:15:14.944Z,3.00
2022-09-03T09:17:52.642Z,3.05
2022-09-03T09:20:26.981Z,3.10
2022-09-03T09:23:09.339Z,3.55
2022-09-03T09:25:47.214Z,3.23
2022-09-03T09:28:26.197Z,3.22
2022-09-03T09:30:56.843Z,3.00
2022-09-03T09:33:27.440Z,3.77
2022-09-03T09:35:57.342Z,3.78
2022-09-03T09:38:33.146Z,3.35
2022-09-03T09:41:20.551Z,3.33
2022-09-03T09:43:59.784Z,3.10
2022-09-03T09:46:35.294Z,3.00
2022-09-03T09:49:27.117Z,2.53
2022-09-03T09:52:06.744Z,2.88
2022-09-03T09:54:43.274Z,2.70
2022-09-03T09:57:18.614Z,3.33
2022-09-03T09:59:49.670Z,3.10
2022-09-03T10:02:27.504Z,3.15
2022-09-03T10:04:58.412Z,3.00
2022-09-03T10:07:28.363Z,3.22
2022-09-03T10:10:07.775Z,3.40
2022-09-03T10:12:59.803Z,3.42
2022-09-03T10:15:37.265Z,3.70
2022-09-03T10:18:10.157Z,3.40
2022-09-03T10:21:08.166Z,3.72
2022-09-03T10:23:50.521Z,3.28
2022-09-03T10:26:19.955Z,4.28
2022-09-03T10:28:55.941Z,4.07
2022-09-03T10:31:37.178Z,3.47
2022-09-03T10:34:29.706Z,3.88
2022-09-03T10:37:26.001Z,3.67
2022-09-03T10:40:40.621Z,4.00
2022-09-03T10:43:26.258Z,3.78
2022-09-03T10:46:09.707Z,4.18
2022-09-03T10:48:58.424Z,3.10
2022-09-03T10:51:28.327Z,3.67
2022-09-03T10:54:32.796Z,4.10
2022-09-03T10:57:07.212Z,3.72
2022-09-03T11:00:13.211Z,3.95
2022-09-03T11:03:21.101Z,4.55
2022-09-03T11:05:54.026Z,3.60
2022-09-03T11:08:29.998Z,3.58
2022-09-03T11:11:10.750Z,4.30
2022-09-03T11:13:58.010Z,4.55
2022-09-03T11:16:34.003Z,4.55
2022-09-03T11:19:10.515Z,4.38
2022-09-03T11:21:44.882Z,4.20
2022-09-03T11:24:27.234Z,3.92
2022-09-03T11:27:30.850Z,4.10
2022-09-03T11:30:23.061Z,4.50
2022-09-03T11:33:17.913Z,4.05
2022-09-03T11:35:48.062Z,4.18
2022-09-03T11:38:19.637Z,4.30
2022-09-03T11:41:00.340Z,4.03
2022-09-03T11:43:35.983Z,3.88
2022-09-03T11:46:14.682Z,4.10
2022-09-03T11:48:47.362Z,4.55
2022-09-03T11:51:37.907Z,4.35
2022-09-03T11:54:14.283Z,4.80
2022-09-03T11:56:43.227Z,4.63
2022-09-03T11:59:28.146Z,4.93
2022-09-03T12:02:02.815Z,5.88
2022-09-03T12:04:51.450Z,5.25
2022-09-03T12:07:32.790Z,5.35
2022-09-03T12:10:13.456Z,5.55
2022-09-03T12:13:05.762Z,5.85
2022-09-03T12:15:50.123Z,5.03
2022-09-03T12:18:24.337Z,5.32
2022-09-03T12:21:02.484Z,5.72
2022-09-03T12:23:35.384Z,5.25
2022-09-03T12:26:15.264Z,5.18
2022-09-03T12:29:06.752Z,4.80
2022-09-03T12:31:51.853Z,4.43
2022-09-03T12:34:21.999Z,5.55
2022-09-03T12:36:53.102Z,4.85
2022-09-03T12:42:20.169Z,5.18
2022-09-03T12:44:49.205Z,4.70
2022-09-03T12:50:17.163Z,5.40
2022-09-03T12:52:54.004Z,5.07
2022-09-03T12:55:42.974Z,4.65
2022-09-03T12:58:26.843Z,5.70
2022-09-03T13:01:04.554Z,4.53
2022-09-03T13:03:58.054Z,4.95
2022-09-03T13:06:34.213Z,5.55
2022-09-03T13:09:07.201Z,4.93
2022-09-03T13:11:40.483Z,5.72
2022-09-03T13:14:13.834Z,4.85
2022-09-03T13:16:45.881Z,5.45
2022-09-03T13:19:41.618Z,4.88
2022-09-03T13:22:25.358Z,5.45
2022-09-03T13:25:03.356Z,5.32
2022-09-03T13:27:45.792Z,5.10
2022-09-03T13:30:21.188Z,5.35
2022-09-03T13:33:09.200Z,5.55
2022-09-03T13:35:56.430Z,5.03
2022-09-03T13:38:37.418Z,5.10
2022-09-03T13:41:40.208Z,5.55
2022-09-03T13:44:41.563Z,5.38
2022-09-03T13:48:01.171Z,4.82
2022-09-03T13:50:31.515Z,4.45
2022-09-03T13:53:22.725Z,5.20
2022-09-03T13:55:57.484Z,4.32
2022-09-03T13:58:42.784Z,4.30
2022-09-03T14:01:42.728Z,4.25
2022-09-03T14:04:23.432Z,3.90
2022-09-03T14:07:42.596Z,5.00
2022-09-03T14:10:44.936Z,4.53
2022-09-03T14:13:37.869Z,5.05
2022-09-03T14:16:32.379Z,4.78
2022-09-03T14:19:00.727Z,5.03
2022-09-03T14:21:35.257Z,5.15
2022-09-03T14:24:07.717Z,5.25
2022-09-03T14:26:39.765Z,4.97
2022-09-03T14:29:11.459Z,4.25
2022-09-03T14:32:05.185Z,4.78
2022-09-03T14:35:00.462Z,4.57
2022-09-03T14:37:40.568Z,5.07
2022-09-03T14:40:32.206Z,4.32
2022-09-03T14:43:31.958Z,4.72
2022-09-03T14:46:09.166Z,5.30
2022-09-03T14:48:49.571Z,5.57
2022-09-03T14:51:43.304Z,5.00
2022-09-03T14:54:31.911Z,5.95
2022-09-03T14:57:12.722Z,5.07
2022-09-03T14:59:41.365Z,4.85
2022-09-03T15:02:10.339Z,5.53
2022-09-03T15:04:52.225Z,5.53
2022-09-03T15:07:31.397Z,5.20
2022-09-03T15:10:38.700Z,4.70
2022-09-03T15:13:21.018Z,5.10
2022-09-03T15:16:10.003Z,5.20
2022-09-03T15:18:54.153Z,5.68
2022-09-03T15:21:40.922Z,5.50
2022-09-03T15:24:31.118Z,5.82
2022-09-03T15:27:37.275Z,5.97
2022-09-03T15:30:10.355Z,6.50
2022-09-03T15:32:44.643Z,5.75
2022-09-03T15:35:33.924Z,5.53
2022-09-03T15:38:08.865Z,6.18
2022-09-03T15:40:46.194Z,5.57
2022-09-03T15:43:24.447Z,5.65
2022-09-03T15:45:59.195Z,5.50
2022-09-03T15:48:27.526Z,5.78
2022-09-03T15:51:05.230Z,5.90
2022-09-03T15:53:35.862Z,5.65
2022-09-03T15:56:31.599Z,5.45
2022-09-03T15:59:39.880Z,5.97
2022-09-03T16:02:31.022Z,5.28
2022-09-03T16:05:07.074Z,5.78
2022-09-03T16:07:41.721Z,5.30
2022-09-03T16:10:24.575Z,5.68
2022-09-03T16:13:07.273Z,5.68
2022-09-03T16:15:47.941Z,5.32
2022-09-03T16:18:40.691Z,5.60
2022-09-03T16:21:32.801Z,6.25
2022-09-03T16:24:16.237Z,5.20
2022-09-03T16:26:47.469Z,6.00
2022-09-03T16:29:17.439Z,5.90
2022-09-03T16:31:58.212Z,5.68
2022-09-03T16:34:41.637Z,5.60
2022-09-03T16:37:31.172Z,5.88
2022-09-03T16:40:26.721Z,6.72
2022-09-03T16:43:43.456Z,6.43
2022-09-03T16:46:48.554Z,7.50
2022-09-03T16:49:41.620Z,6.85
2022-09-03T16:52:38.674Z,6.45
2022-09-03T16:55:19.171Z,6.80
2022-09-03T16:57:59.398Z,6.32
2022-09-03T17:01:02.501Z,6.90
2022-09-03T17:03:37.738Z,6.63
2022-09-03T17:06:27.143Z,6.47
2022-09-03T17:09:02.173Z,6.90
2022-09-03T17:11:41.074Z,6.25
2022-09-03T17:14:26.121Z,6.35
2022-09-03T17:17:23.493Z,6.53
2022-09-03T17:20:23.154Z,6.07
2022-09-03T17:23:16.292Z,6.40
2022-09-03T17:26:03.046Z,8.02
2022-09-03T17:28:55.818Z,8.07
2022-09-03T17:31:57.138Z,6.28
2022-09-03T17:34:51.662Z,6.22
2022-09-03T17:37:38.913Z,6.35
2022-09-03T17:40:23.067Z,6.55
2022-09-03T17:43:07.810Z,6.63
2022-09-03T17:45:57.352Z,6.63
2022-09-03T17:48:47.245Z,7.00
2022-09-03T17:51:27.330Z,6.18
2022-09-03T17:54:06.718Z,6.50
2022-09-03T17:57:11.871Z,6.72
2022-09-03T17:59:54.297Z,6.07
2022-09-03T18:02:22.748Z,6.68
2022-09-03T18:05:30.543Z,6.13
2022-09-03T18:08:09.114Z,6.45
2022-09-03T18:10:40.794Z,5.70
2022-09-03T18:13:36.439Z,6.72
2022-09-03T18:16:15.116Z,7.93
2022-09-03T18:18:48.194Z,8.80
2022-09-03T18:21:42.432Z,7.78
2022-09-03T18:24:50.786Z,6.97
2022-09-03T18:27:57.705Z,6.63
2022-09-03T18:30:46.937Z,6.47
2022-09-03T18:33:35.556Z,6.32
2022-09-03T18:36:25.104Z,6.72
2022-09-03T18:39:12.772Z,6.18
2022-09-03T18:42:13.481Z,6.03
2022-09-03T18:46:17.538Z,6.40
2022-09-03T18:49:35.064Z,6.60
2022-09-03T18:52:55.128Z,6.47
2022-09-03T18:56:20.347Z,5.75
2022-09-03T18:59:40.470Z,6.38
2022-09-03T19:02:52.065Z,5.82
2022-09-03T19:05:59.042Z,5.95
2022-09-03T19:09:08.458Z,6.05
2022-09-03T19:12:10.013Z,5.45
2022-09-03T19:15:09.385Z,5.82
2022-09-03T19:18:03.643Z,6.55
2022-09-03T19:21:14.220Z,5.90
2022-09-03T19:24:01.602Z,6.10
2022-09-03T19:26:58.155Z,6.80
2022-09-03T19:30:06.452Z,7.13
2022-09-03T19:33:13.900Z,6.63
2022-09-03T19:36:19.270Z,6.78
2022-09-03T19:40:02.660Z,8.27
2022-09-03T19:42:58.442Z,11.07
2022-09-03T19:45:59.471Z,7.75
2022-09-03T19:49:12.626Z,6.25
2022-09-03T19:52:26.314Z,5.30
2022-09-03T19:55:14.451Z,5.22
2022-09-03T19:58:42.200Z,5.65
2022-09-03T20:01:30.286Z,5.22
2022-09-03T20:04:19.634Z,5.75
2022-09-03T20:07:09.718Z,7.22
2022-09-03T20:10:01.065Z,8.18
2022-09-03T20:12:36.305Z,8.18
2022-09-03T20:15:09.312Z,6.55
2022-09-03T20:18:05.714Z,7.47
2022-09-03T20:21:08.752Z,7.45
2022-09-03T20:23:59.793Z,6.68
2022-09-03T20:26:56.461Z,6.32
2022-09-03T20:29:28.554Z,5.28
2022-09-03T20:32:26.933Z,5.80
2022-09-03T20:35:20.096Z,4.78
2022-09-03T20:38:33.119Z,5.05
2022-09-03T20:41:19.421Z,4.70
2022-09-03T20:44:19.914Z,4.80
2022-09-03T20:47:11.198Z,4.55
2022-09-03T20:49:58.822Z,5.93
2022-09-03T20:52:27.072Z,5.27
2022-09-03T20:55:10.126Z,5.38
2022-09-03T20:57:41.967Z,5.28
2022-09-03T21:00:18.844Z,6.10
2022-09-03T21:03:23.121Z,6.20
2022-09-03T21:06:10.222Z,6.43
2022-09-03T21:08:48.627Z,5.97
2022-09-03T21:11:45.857Z,7.00
2022-09-03T21:14:40.125Z,12.50
2022-09-03T21:17:34.030Z,12.70
2022-09-03T21:20:34.279Z,13.03
2022-09-03T21:23:05.195Z,12.80
2022-09-03T21:25:38.950Z,11.43
2022-09-03T21:28:20.313Z,9.53
2022-09-03T21:30:52.412Z,8.77
2022-09-03T21:33:24.122Z,7.57
2022-09-03T21:35:55.270Z,7.15
2022-09-03T21:38:33.191Z,8.55
2022-09-03T21:41:22.427Z,15.70
2022-09-03T21:44:32.912Z,18.57
2022-09-03T21:47:07.212Z,18.53
2022-09-03T21:50:01.592Z,17.10
2022-09-03T21:53:00.532Z,15.80
2022-09-03T21:55:41.215Z,12.80
2022-09-03T21:58:33.184Z,10.50
2022-09-03T22:01:07.545Z,9.80
2022-09-03T22:03:35.928Z,10.60
2022-09-03T22:06:07.364Z,10.98
2022-09-03T22:08:49.451Z,9.57
2022-09-03T22:11:44.779Z,9.20
2022-09-03T22:14:13.824Z,7.40
2022-09-03T22:16:49.679Z,6.57
2022-09-03T22:19:18.631Z,5.88
2022-09-03T22:22:02.275Z,6.67
2022-09-03T22:24:48.526Z,9.52
2022-09-03T22:27:50.270Z,14.10
2022-09-03T22:30:22.812Z,15.20
2022-09-03T22:33:00.793Z,16.25
2022-09-03T22:35:51.192Z,15.85
2022-09-03T22:38:36.294Z,14.45
2022-09-03T22:41:07.279Z,13.55
2022-09-03T22:43:43.709Z,11.70
2022-09-03T22:46:16.193Z,13.13
2022-09-03T22:48:59.868Z,16.60
2022-09-03T22:51:29.804Z,16.93
2022-09-03T22:54:02.195Z,18.97
2022-09-03T22:56:33.476Z,23.23
2022-09-03T22:59:14.041Z,20.27
2022-09-03T23:01:56.596Z,12.90
2022-09-03T23:04:49.710Z,9.30
2022-09-03T23:07:23.161Z,7.77
2022-09-03T23:09:58.125Z,6.20
2022-09-03T23:12:40.015Z,4.70
2022-09-03T23:15:11.725Z,5.00
2022-09-03T23:18:17.869Z,4.60
2022-09-03T23:21:22.301Z,4.50
2022-09-03T23:24:06.551Z,4.70
2022-09-03T23:26:46.946Z,4.80
2022-09-03T23:29:29.330Z,4.03
2022-09-03T23:31:59.266Z,4.23
2022-09-03T23:34:27.753Z,4.70
2022-09-03T23:37:22.473Z,3.83
2022-09-03T23:39:55.269Z,4.57
2022-09-03T23:42:51.402Z,5.27
2022-09-03T23:45:39.713Z,5.30
2022-09-03T23:48:26.894Z,5.83
2022-09-03T23:51:09.410Z,5.43
2022-09-03T23:53:53.809Z,5.53
2022-09-03T23:56:57.539Z,5.20
2022-09-03T23:59:38.980Z,4.90
